Oconto, WI (54153)

8:04 PM CDT on May 29, 2015 (GMT -0500)
Oconto Municipal | | Change Station
CLOSE
Current Station
Airport
Location: Oconto,
Elevation: 604 ft
Nearby Weather Stations

Elev 604 ft 44.87 °N, 87.91 °W | Updated 9 minutes ago

Overcast
Overcast
71 °F
Feels Like 71 °F
N
5
Wind Variable Wind from SW

Today
High -- | Low -- °F
--% Chance of Precip.
Yesterday
High -- | Low -- °F
Precip. -- in
5:10 AM 8:27 PM
Waxing Gibbous, 87% visible
Pressure 29.85 in
Visibility 10.0 miles
Clouds Scattered Clouds 7000 ft
Scattered Clouds 9000 ft
Overcast 11000 ft
Dew Point 67 °F
Humidity 86%
Rainfall 0.06 in
Snow Depth Not available.
UV 0 out of 12
Pollen 5.20 out of 12
Air Quality Not available.
Flu Activity Sporadic
METAR KOCQ 300055Z AUTO 22004KT 10SM SCT070 SCT090 OVC110 22/19 A2985 RMK AO1 T02160192

More Conditions Fewer Conditions

Pressure 29.85 in
Visibility 10.0 miles
Clouds Scattered Clouds 7000 ft
Scattered Clouds 9000 ft
Overcast 11000 ft
Dew Point 67 °F
Humidity 86%
Rainfall 0.06 in
Snow Depth Not available.
UV 0 out of 12
Pollen 5.20 out of 12
Air Quality Not available.
Flu Activity Sporadic
METAR KOCQ 300055Z AUTO 22004KT 10SM SCT070 SCT090 OVC110 22/19 A2985 RMK AO1 T02160192

More Conditions Fewer Conditions

10-Day Weather Forecast

Almanac

Astronomy

May. 29, 2015 Rise Set
Actual Time
Civil Twilight
Nautical Twilight
Astronomical Twilight
Moon
Length of Visible Light
Length of Day
Tomorrow will be .
, % of the Moon is Illuminated

Today's Extremes

State Highs State Lows

Community

WunderPhotos

Upload Photos

1,825,413 photos uploaded!

WunderBlogs® & News

Nearby

Air Quality

  Air Quality AQ Index Pollutant
Not available.

Snow Depth

Station Depth Elevation

Earthquake Activity

City Distance Mag. Time & Date
Minimum magnitude displayed is 2.5.

Coastal Water Temperatures

Place Temperature

Stations

Nearby Weather Stations

Station Location Temp. Windchill Dew Point Humidity Wind Precip. Elev Updated Type